Time;durP1;ratioP1;P1;durP2;ratioP2;P2;SDS_P1;SDS_P2;PMS_P1;PMS_P2;Temp;Humidity;BMP_temperature;BMP_pressure;BME280_temperature;BME280_humidity;BME280_pressure;Samples;Min_cycle;Max_cycle;Signal;HPM_P1;HPM_P2
2023/01/18 00:09:58;;;;;;;1999.90;999.90;;;-0.90;99.90;;;;;;6734604;88;20248;-75
2023/01/18 00:19:58;;;;;;;1999.90;999.90;;;-0.80;99.90;;;;;;6733745;88;20209;-75
2023/01/18 00:29:59;;;;;;;1999.90;999.90;;;-0.80;99.90;;;;;;6748157;88;20212;-75
2023/01/18 00:39:59;;;;;;;1999.90;999.90;;;-0.80;99.90;;;;;;6736370;88;20222;-74
2023/01/18 00:50:00;;;;;;;1999.90;999.90;;;-0.90;99.90;;;;;;6738049;88;20275;-74
2023/01/18 01:00:00;;;;;;;1999.90;999.90;;;-1.00;99.90;;;;;;6734706;88;20189;-74
2023/01/18 01:10:07;;;;;;;1999.90;999.90;;;-1.00;99.90;;;;;;6736874;88;20313;-74
2023/01/18 01:30:28;;;;;;;1999.90;999.90;;;-1.10;99.90;;;;;;6738343;88;20181;-75
2023/01/18 01:40:29;;;;;;;1999.90;999.90;;;-1.30;99.90;;;;;;6662846;88;20237;-75
2023/01/18 01:50:38;;;;;;;1999.90;999.90;;;-1.10;99.90;;;;;;6652544;88;20654;-75
2023/01/18 02:00:39;;;;;;;1999.90;999.90;;;-1.20;99.90;;;;;;6648950;88;20656;-74
2023/01/18 02:10:39;;;;;;;1999.90;999.90;;;-1.30;99.90;;;;;;6659883;88;20270;-74
2023/01/18 02:21:10;;;;;;;1999.90;999.90;;;-1.20;99.90;;;;;;6657454;88;20331;-75
2023/01/18 02:31:25;;;;;;;1999.90;999.90;;;-1.00;99.90;;;;;;6657795;87;20335;-75
2023/01/18 02:52:02;;;;;;;1999.90;999.90;;;-1.20;99.90;;;;;;6740660;88;20247;-75
2023/01/18 03:02:10;;;;;;;1999.90;999.90;;;-1.10;99.90;;;;;;6745180;88;20227;-75
2023/01/18 03:12:27;;;;;;;1999.90;999.90;;;-1.20;99.90;;;;;;6741776;88;20215;-75
2023/01/18 03:43:25;;;;;;;1999.90;999.90;;;-1.50;99.90;;;;;;6743315;88;20687;-75
2023/01/18 03:53:38;;;;;;;1999.90;999.90;;;-1.30;99.90;;;;;;6744447;88;20190;-75
2023/01/18 04:03:38;;;;;;;1999.90;999.90;;;-1.30;99.90;;;;;;6741895;88;20223;-75
2023/01/18 04:13:38;;;;;;;1999.90;999.90;;;-1.50;99.90;;;;;;6747636;88;20203;-75
2023/01/18 04:23:39;;;;;;;1999.90;999.90;;;-1.20;99.90;;;;;;6741450;88;20205;-75
2023/01/18 04:33:39;;;;;;;1999.90;999.90;;;-1.20;99.90;;;;;;6742172;88;20196;-75
2023/01/18 04:43:40;;;;;;;1999.90;999.90;;;-1.30;99.90;;;;;;6742147;88;20168;-75
2023/01/18 04:53:42;;;;;;;1999.90;999.90;;;-1.50;99.90;;;;;;6744062;88;20314;-75
2023/01/18 05:03:42;;;;;;;1999.90;999.90;;;-1.40;99.90;;;;;;6742333;88;20355;-75
2023/01/18 05:13:43;;;;;;;1999.90;999.90;;;-1.30;99.90;;;;;;6741050;88;20555;-75
2023/01/18 05:23:44;;;;;;;1999.90;999.90;;;-1.40;99.90;;;;;;6740256;88;20252;-75
2023/01/18 05:33:45;;;;;;;1999.90;999.90;;;-1.30;99.90;;;;;;6742871;88;20212;-75
2023/01/18 05:43:45;;;;;;;1999.90;999.90;;;-1.20;99.90;;;;;;6743960;88;20181;-75
2023/01/18 05:53:46;;;;;;;1999.90;999.90;;;-1.10;99.90;;;;;;6743363;88;20217;-75
2023/01/18 06:03:46;;;;;;;1999.90;999.90;;;-1.20;99.90;;;;;;6743614;88;20542;-76
2023/01/18 06:13:47;;;;;;;1999.90;999.90;;;-1.20;99.90;;;;;;6743682;88;20325;-74
2023/01/18 06:23:47;;;;;;;1999.90;999.90;;;-1.40;99.90;;;;;;6744499;88;20209;-74
2023/01/18 06:33:48;;;;;;;1999.90;999.90;;;-1.40;99.90;;;;;;6743587;87;20196;-73
2023/01/18 06:43:49;;;;;;;1999.90;999.90;;;-1.40;99.90;;;;;;6745161;88;20184;-74
2023/01/18 06:53:49;;;;;;;1999.90;999.90;;;-1.50;99.90;;;;;;6743334;88;20209;-76
2023/01/18 07:03:51;;;;;;;1999.90;999.90;;;-1.40;99.90;;;;;;6751652;88;20189;-76
2023/01/18 07:13:52;;;;;;;1999.90;999.90;;;-1.60;99.90;;;;;;6741691;88;20652;-73
2023/01/18 07:23:53;;;;;;;1999.90;999.90;;;-1.70;99.90;;;;;;6743340;88;20177;-74
2023/01/18 07:33:53;;;;;;;1999.90;999.90;;;-1.70;99.90;;;;;;6744184;88;20221;-74
2023/01/18 07:43:54;;;;;;;1999.90;999.90;;;-1.70;99.90;;;;;;6747300;88;20209;-76
2023/01/18 07:53:55;;;;;;;1999.90;999.90;;;-1.80;99.90;;;;;;6750406;88;20188;-74
2023/01/18 08:03:55;;;;;;;1999.90;999.90;;;-1.70;99.90;;;;;;6745791;88;20323;-75
2023/01/18 08:13:56;;;;;;;1999.90;999.90;;;-1.70;99.90;;;;;;6741172;88;20392;-74
2023/01/18 08:23:56;;;;;;;1999.90;999.90;;;-1.60;99.90;;;;;;6743212;88;20375;-74
2023/01/18 08:33:57;;;;;;;1999.90;999.90;;;-1.60;99.90;;;;;;6741165;88;20837;-74
2023/01/18 08:43:58;;;;;;;1999.90;999.90;;;-1.40;99.90;;;;;;6743903;88;20264;-74
2023/01/18 08:53:59;;;;;;;1999.90;999.90;;;-1.30;99.90;;;;;;6742201;88;20668;-74
2023/01/18 09:04:00;;;;;;;1999.90;999.90;;;-1.10;99.90;;;;;;6739101;88;20207;-77
2023/01/18 09:14:00;;;;;;;1999.90;999.90;;;-0.70;99.90;;;;;;6740602;88;20285;-75
2023/01/18 09:24:01;;;;;;;1999.90;999.90;;;-0.30;99.90;;;;;;6742871;88;20231;-75
2023/01/18 09:34:01;;;;;;;1999.90;999.90;;;0.40;99.90;;;;;;6738412;88;20552;-75
2023/01/18 09:44:08;;;;;;;1999.90;999.90;;;0.60;99.90;;;;;;6740454;88;20205;-75
2023/01/18 09:54:37;;;;;;;1999.90;999.90;;;0.90;99.90;;;;;;6743040;88;20180;-75
2023/01/18 10:04:42;;;;;;;1999.90;999.90;;;1.20;99.90;;;;;;6738908;88;20682;-75
2023/01/18 10:15:21;;;;;;;1999.90;999.90;;;1.80;99.90;;;;;;6742533;88;20179;-75
2023/01/18 10:25:31;;;;;;;1999.90;999.90;;;2.20;99.90;;;;;;6739971;88;20669;-75
2023/01/18 10:35:33;;;;;;;1999.90;999.90;;;2.70;99.90;;;;;;6742723;88;20193;-75
2023/01/18 10:45:34;;;;;;;1999.90;999.90;;;3.70;99.90;;;;;;6738032;88;20701;-75
2023/01/18 10:55:35;;;;;;;1999.90;999.90;;;3.80;99.90;;;;;;6741787;88;20205;-75
2023/01/18 11:05:42;;;;;;;1999.90;999.90;;;4.00;99.90;;;;;;6740192;88;20633;-75
2023/01/18 11:15:43;;;;;;;1999.90;999.90;;;3.90;99.90;;;;;;6741655;88;20318;-74
2023/01/18 11:26:15;;;;;;;1999.90;999.90;;;3.80;99.90;;;;;;6740066;88;20690;-75
2023/01/18 11:36:18;;;;;;;1999.90;999.90;;;4.00;99.90;;;;;;6737616;88;20694;-74
2023/01/18 11:46:30;;;;;;;1999.90;999.90;;;4.20;99.90;;;;;;6746499;88;20624;-74
2023/01/18 11:56:44;;;;;;;1999.90;999.90;;;5.00;99.90;;;;;;6747076;88;20341;-74
2023/01/18 12:07:04;;;;;;;1999.90;999.90;;;5.60;99.90;;;;;;6740155;88;20184;-74
2023/01/18 12:18:06;;;;;;;1999.90;999.90;;;6.30;99.90;;;;;;6738059;88;20212;-74
2023/01/18 12:28:31;;;;;;;1999.90;999.90;;;6.10;99.90;;;;;;6700518;88;20311;-74
2023/01/18 12:38:33;;;;;;;1999.90;999.90;;;7.00;99.90;;;;;;6734508;88;20571;-74
2023/01/18 12:48:57;;;;;;;1999.90;999.90;;;7.00;99.90;;;;;;6738072;88;20202;-74
2023/01/18 12:59:11;;;;;;;1999.90;999.90;;;7.80;99.90;;;;;;6737431;88;20205;-75
2023/01/18 13:09:17;;;;;;;1999.90;999.90;;;8.20;99.90;;;;;;6734267;88;20333;-74
2023/01/18 13:19:22;;;;;;;1999.90;999.90;;;9.00;99.90;;;;;;6734465;88;20572;-74
2023/01/18 13:29:29;;;;;;;1999.90;999.90;;;8.90;99.70;;;;;;6733378;88;20255;-74
2023/01/18 13:39:31;;;;;;;1999.90;999.90;;;9.30;99.90;;;;;;6738683;88;20221;-75
2023/01/18 13:49:36;;;;;;;1999.90;999.90;;;8.70;99.90;;;;;;6735082;88;20321;-76
2023/01/18 13:59:45;;;;;;;1999.90;999.90;;;9.60;99.90;;;;;;6737990;88;20177;-75
2023/01/18 14:09:47;;;;;;;1999.90;999.90;;;8.60;99.70;;;;;;6738582;88;20301;-75
2023/01/18 14:19:48;;;;;;;1999.90;999.90;;;7.40;99.90;;;;;;6736021;88;20337;-75
2023/01/18 14:29:55;;;;;;;1999.90;999.90;;;7.30;99.90;;;;;;6736942;88;20633;-75
2023/01/18 14:40:02;;;;;;;1999.90;999.90;;;7.20;99.90;;;;;;6736568;88;20205;-75
2023/01/18 14:50:03;;;;;;;1999.90;999.90;;;7.40;99.90;;;;;;6737823;88;20632;-75
2023/01/18 15:00:15;;;;;;;1999.90;999.90;;;7.30;99.90;;;;;;6742053;88;20641;-75
2023/01/18 15:10:17;;;;;;;1999.90;999.90;;;6.60;99.90;;;;;;6739970;88;20306;-75
2023/01/18 15:20:18;;;;;;;1999.90;999.90;;;6.00;99.90;;;;;;6737081;88;20280;-75
2023/01/18 15:30:22;;;;;;;1999.90;999.90;;;5.60;99.90;;;;;;6740282;88;20216;-75
2023/01/18 15:40:28;;;;;;;1999.90;999.90;;;4.90;99.90;;;;;;6740331;88;20217;-75
2023/01/18 15:50:42;;;;;;;1999.90;999.90;;;4.40;99.90;;;;;;6739102;88;20208;-75
2023/01/18 16:00:51;;;;;;;1999.90;999.90;;;3.90;99.90;;;;;;6740656;88;20212;-76
2023/01/18 16:10:54;;;;;;;1999.90;999.90;;;3.40;99.90;;;;;;6740254;88;20724;-75
2023/01/18 16:20:57;;;;;;;1999.90;999.90;;;3.10;99.90;;;;;;6738766;88;20617;-75
2023/01/18 16:31:02;;;;;;;1999.90;999.90;;;2.70;99.90;;;;;;6738357;88;20239;-76
2023/01/18 16:41:02;;;;;;;1999.90;999.90;;;2.50;99.90;;;;;;6744478;88;20219;-75
2023/01/18 16:51:10;;;;;;;1999.90;999.90;;;2.40;99.90;;;;;;6740967;88;20249;-76
2023/01/18 17:01:12;;;;;;;1999.90;999.90;;;2.20;99.90;;;;;;6747151;88;20263;-74
2023/01/18 17:11:13;;;;;;;1999.90;999.90;;;2.10;99.90;;;;;;6739943;88;20318;-76
2023/01/18 17:21:14;;;;;;;1999.90;999.90;;;1.80;99.90;;;;;;6747442;88;20181;-76
2023/01/18 17:31:14;;;;;;;1999.90;999.90;;;1.70;99.90;;;;;;6745362;88;20178;-76
2023/01/18 17:41:25;;;;;;;1999.90;999.90;;;1.50;99.90;;;;;;6674329;88;20214;-78
2023/01/18 17:51:25;;;;;;;1999.90;999.90;;;1.30;99.90;;;;;;6674580;88;20259;-77
2023/01/18 18:01:26;;;;;;;1999.90;999.90;;;1.10;99.90;;;;;;6665110;88;20654;-76
2023/01/18 18:11:27;;;;;;;1999.90;999.90;;;1.10;99.90;;;;;;6666029;88;20258;-77
2023/01/18 18:21:27;;;;;;;1999.90;999.90;;;1.00;99.90;;;;;;6660751;88;20221;-75
2023/01/18 18:31:28;;;;;;;1999.90;999.90;;;1.00;99.90;;;;;;6660117;89;20201;-75
2023/01/18 18:41:29;;;;;;;1999.90;999.90;;;0.90;99.90;;;;;;6738870;88;20625;-75
2023/01/18 18:51:29;;;;;;;1999.90;999.90;;;0.90;99.90;;;;;;6750267;88;20222;-74
2023/01/18 19:01:29;;;;;;;1999.90;999.90;;;0.90;99.90;;;;;;6742626;88;20214;-74
2023/01/18 19:11:30;;;;;;;1999.90;999.90;;;0.90;99.90;;;;;;6743947;88;20649;-75
2023/01/18 19:21:31;;;;;;;1999.90;999.90;;;0.90;99.90;;;;;;6745117;88;20737;-75
2023/01/18 19:31:32;;;;;;;1999.90;999.90;;;0.80;99.90;;;;;;6742967;88;20213;-75
2023/01/18 19:41:32;;;;;;;1999.90;999.90;;;0.80;99.90;;;;;;6742833;88;20238;-75
2023/01/18 19:51:36;;;;;;;1999.90;999.90;;;0.80;99.90;;;;;;6745335;88;20674;-76
2023/01/18 20:01:37;;;;;;;1999.90;999.90;;;0.90;99.90;;;;;;6744361;88;20752;-75
2023/01/18 20:11:38;;;;;;;1999.90;999.90;;;0.80;99.90;;;;;;6742748;88;20375;-76
2023/01/18 20:21:38;;;;;;;1999.90;999.90;;;0.80;99.90;;;;;;6744897;88;20206;-74
2023/01/18 20:31:39;;;;;;;1999.90;999.90;;;0.90;99.90;;;;;;6732544;88;20245;-74
2023/01/18 20:41:39;;;;;;;1999.90;999.90;;;0.80;99.90;;;;;;6664549;88;20759;-75
2023/01/18 20:51:40;;;;;;;1999.90;999.90;;;0.80;99.90;;;;;;6659787;88;20308;-77
2023/01/18 21:01:41;;;;;;;1999.90;999.90;;;0.80;99.90;;;;;;6661848;88;20198;-75
2023/01/18 21:11:42;;;;;;;1999.90;999.90;;;0.80;99.90;;;;;;6643631;89;20686;-75
2023/01/18 21:21:43;;;;;;;1999.90;999.90;;;0.70;99.90;;;;;;6659387;88;20224;-74
2023/01/18 21:31:44;;;;;;;1999.90;999.90;;;0.80;99.90;;;;;;6670476;88;20205;-76
2023/01/18 22:02:22;;;;;;;1999.90;999.90;;;0.60;99.90;;;;;;6736646;88;20270;-75
2023/01/18 22:12:24;;;;;;;1999.90;999.90;;;0.50;99.90;;;;;;6739416;88;20229;-75
2023/01/18 22:22:24;;;;;;;1999.90;999.90;;;0.50;99.90;;;;;;6752494;88;20492;-74
2023/01/18 22:32:25;;;;;;;1999.90;999.90;;;0.50;99.90;;;;;;6748436;88;20954;-74
2023/01/18 22:42:26;;;;;;;1999.90;999.90;;;0.50;99.90;;;;;;6741344;88;20786;-74
2023/01/18 22:52:26;;;;;;;1999.90;999.90;;;0.50;99.90;;;;;;6737654;88;20724;-75
2023/01/18 23:02:27;;;;;;;1999.90;999.90;;;0.60;99.90;;;;;;6738799;88;20229;-75
2023/01/18 23:12:27;;;;;;;1999.90;999.90;;;0.70;99.90;;;;;;6734977;88;20292;-75
2023/01/18 23:22:28;;;;;;;1999.90;999.90;;;0.60;99.90;;;;;;6750154;88;21090;-75
2023/01/18 23:32:31;;;;;;;1999.90;999.90;;;0.60;99.90;;;;;;6736997;88;20691;-76
